sensor_id;sensor_type;location;lat;lon;timestamp;pressure;altitude;pressure_sealevel;temperature;humidity
58467;BME280;44255;49.244;7.726;2023-04-06T03:30:20;98540.34;;;-7.68;65.80
58467;BME280;44255;49.244;7.726;2023-04-06T03:32:45;98542.84;;;-7.88;66.90
58467;BME280;44255;49.244;7.726;2023-04-06T03:35:10;98542.03;;;-7.82;66.96
58467;BME280;44255;49.244;7.726;2023-04-06T03:37:36;98540.22;;;-7.88;66.95
58467;BME280;44255;49.244;7.726;2023-04-06T03:40:01;98548.38;;;-7.46;65.47
58467;BME280;44255;49.244;7.726;2023-04-06T03:42:27;98543.75;;;-7.83;66.64
58467;BME280;44255;49.244;7.726;2023-04-06T03:44:52;98548.03;;;-7.93;67.10
58467;BME280;44255;49.244;7.726;2023-04-06T03:47:18;98549.66;;;-8.07;67.89
58467;BME280;44255;49.244;7.726;2023-04-06T03:49:43;98548.88;;;-7.97;67.83
58467;BME280;44255;49.244;7.726;2023-04-06T03:52:08;98555.78;;;-8.04;67.88
58467;BME280;44255;49.244;7.726;2023-04-06T03:54:33;98557.47;;;-8.10;68.21
58467;BME280;44255;49.244;7.726;2023-04-06T03:56:59;98554.09;;;-8.00;67.86
58467;BME280;44255;49.244;7.726;2023-04-06T03:59:25;98563.38;;;-8.30;68.99
58467;BME280;44255;49.244;7.726;2023-04-06T04:01:50;98560.78;;;-8.30;69.06
58467;BME280;44255;49.244;7.726;2023-04-06T04:04:16;98564.34;;;-8.19;68.50
58467;BME280;44255;49.244;7.726;2023-04-06T04:06:41;98560.75;;;-8.33;69.00
58467;BME280;44255;49.244;7.726;2023-04-06T04:09:06;98566.22;;;-8.07;68.10
58467;BME280;44255;49.244;7.726;2023-04-06T04:11:31;98563.50;;;-8.18;68.88
58467;BME280;44255;49.244;7.726;2023-04-06T04:13:57;98565.31;;;-8.10;67.63
58467;BME280;44255;49.244;7.726;2023-04-06T04:16:22;98563.63;;;-8.05;68.23
58467;BME280;44255;49.244;7.726;2023-04-06T04:18:47;98569.50;;;-8.28;68.01
58467;BME280;44255;49.244;7.726;2023-04-06T04:21:13;98569.56;;;-8.22;68.37
58467;BME280;44255;49.244;7.726;2023-04-06T04:23:39;98572.19;;;-8.19;68.13
58467;BME280;44255;49.244;7.726;2023-04-06T04:26:04;98572.50;;;-7.84;67.30
58467;BME280;44255;49.244;7.726;2023-04-06T04:28:30;98578.72;;;-7.73;66.96
58467;BME280;44255;49.244;7.726;2023-04-06T04:30:55;98574.00;;;-8.13;68.15
58467;BME280;44255;49.244;7.726;2023-04-06T04:33:20;98583.41;;;-8.32;69.71
58467;BME280;44255;49.244;7.726;2023-04-06T04:35:45;98586.09;;;-8.26;69.29
58467;BME280;44255;49.244;7.726;2023-04-06T04:38:11;98581.59;;;-8.39;70.41
58467;BME280;44255;49.244;7.726;2023-04-06T04:40:36;98584.22;;;-8.36;69.94
58467;BME280;44255;49.244;7.726;2023-04-06T04:43:01;98584.13;;;-8.46;70.07
58467;BME280;44255;49.244;7.726;2023-04-06T04:45:26;98581.72;;;-8.27;68.84
58467;BME280;44255;49.244;7.726;2023-04-06T04:47:52;98586.94;;;-8.27;68.27
58467;BME280;44255;49.244;7.726;2023-04-06T04:50:17;98585.16;;;-8.31;68.70
58467;BME280;44255;49.244;7.726;2023-04-06T04:52:42;98582.59;;;-8.28;69.06
58467;BME280;44255;49.244;7.726;2023-04-06T04:55:07;98578.91;;;-8.44;68.86
58467;BME280;44255;49.244;7.726;2023-04-06T04:57:33;98585.97;;;-8.35;68.44
58467;BME280;44255;49.244;7.726;2023-04-06T04:59:58;98582.44;;;-8.40;68.49
58467;BME280;44255;49.244;7.726;2023-04-06T05:02:23;98580.72;;;-8.40;68.23
58467;BME280;44255;49.244;7.726;2023-04-06T05:04:49;98584.94;;;-8.51;69.05
58467;BME280;44255;49.244;7.726;2023-04-06T05:07:14;98588.56;;;-8.38;68.90
58467;BME280;44255;49.244;7.726;2023-04-06T05:09:40;98585.81;;;-8.52;69.60
58467;BME280;44255;49.244;7.726;2023-04-06T05:12:06;98590.97;;;-8.57;69.18
58467;BME280;44255;49.244;7.726;2023-04-06T05:14:31;98582.38;;;-8.45;69.24
58467;BME280;44255;49.244;7.726;2023-04-06T05:16:56;98581.38;;;-8.58;70.26
58467;BME280;44255;49.244;7.726;2023-04-06T05:19:22;98584.78;;;-8.65;70.00
58467;BME280;44255;49.244;7.726;2023-04-06T05:21:47;98585.78;;;-8.54;69.70
58467;BME280;44255;49.244;7.726;2023-04-06T05:24:12;98580.59;;;-8.49;69.67
58467;BME280;44255;49.244;7.726;2023-04-06T05:26:37;98580.63;;;-8.48;69.10
58467;BME280;44255;49.244;7.726;2023-04-06T05:29:03;98583.13;;;-8.59;69.96
58467;BME280;44255;49.244;7.726;2023-04-06T05:31:28;98586.59;;;-8.58;70.56
58467;BME280;44255;49.244;7.726;2023-04-06T05:33:55;98582.34;;;-8.51;69.96
58467;BME280;44255;49.244;7.726;2023-04-06T05:36:20;98580.56;;;-8.55;70.36
58467;BME280;44255;49.244;7.726;2023-04-06T05:38:45;98591.97;;;-8.49;70.20
58467;BME280;44255;49.244;7.726;2023-04-06T05:41:11;98590.19;;;-8.50;70.13
58467;BME280;44255;49.244;7.726;2023-04-06T05:43:36;98586.81;;;-8.39;70.50
58467;BME280;44255;49.244;7.726;2023-04-06T05:46:01;98591.16;;;-8.41;70.37
58467;BME280;44255;49.244;7.726;2023-04-06T05:48:27;98591.00;;;-8.54;70.13
58467;BME280;44255;49.244;7.726;2023-04-06T05:50:52;98594.75;;;-8.33;71.42
58467;BME280;44255;49.244;7.726;2023-04-06T05:53:18;98593.03;;;-8.28;70.50
58467;BME280;44255;49.244;7.726;2023-04-06T05:55:43;98593.28;;;-8.03;69.84
58467;BME280;44255;49.244;7.726;2023-04-06T05:58:08;98594.13;;;-8.06;69.80
58467;BME280;44255;49.244;7.726;2023-04-06T06:00:34;98592.50;;;-7.93;69.63
58467;BME280;44255;49.244;7.726;2023-04-06T06:02:59;98589.13;;;-7.78;69.89
58467;BME280;44255;49.244;7.726;2023-04-06T06:05:25;98590.97;;;-7.69;68.63
58467;BME280;44255;49.244;7.726;2023-04-06T06:07:50;98586.75;;;-7.50;68.56
58467;BME280;44255;49.244;7.726;2023-04-06T06:10:15;98590.34;;;-7.35;67.96
58467;BME280;44255;49.244;7.726;2023-04-06T06:12:40;98590.28;;;-7.45;68.00
58467;BME280;44255;49.244;7.726;2023-04-06T06:15:06;98587.66;;;-7.41;68.40
58467;BME280;44255;49.244;7.726;2023-04-06T06:17:32;98582.38;;;-7.51;68.56
58467;BME280;44255;49.244;7.726;2023-04-06T06:19:57;98588.66;;;-7.28;68.88
58467;BME280;44255;49.244;7.726;2023-04-06T06:22:22;98585.22;;;-7.17;68.11
58467;BME280;44255;49.244;7.726;2023-04-06T06:24:48;98582.81;;;-6.78;66.95
58467;BME280;44255;49.244;7.726;2023-04-06T06:27:15;98578.41;;;-6.87;67.11
58467;BME280;44255;49.244;7.726;2023-04-06T06:29:40;98581.97;;;-6.66;66.49
58467;BME280;44255;49.244;7.726;2023-04-06T06:32:06;98580.28;;;-6.50;65.88
58467;BME280;44255;49.244;7.726;2023-04-06T06:34:34;98572.44;;;-6.40;65.61
58467;BME280;44255;49.244;7.726;2023-04-06T06:36:59;98579.47;;;-6.15;65.36
58467;BME280;44255;49.244;7.726;2023-04-06T06:39:25;98576.91;;;-6.01;63.85
58467;BME280;44255;49.244;7.726;2023-04-06T06:41:51;98578.66;;;-5.85;63.22
58467;BME280;44255;49.244;7.726;2023-04-06T06:44:16;98576.03;;;-5.82;63.39
58467;BME280;44255;49.244;7.726;2023-04-06T06:46:42;98582.16;;;-6.01;63.85
58467;BME280;44255;49.244;7.726;2023-04-06T06:49:07;98585.69;;;-5.86;63.63
58467;BME280;44255;49.244;7.726;2023-04-06T06:51:32;98576.91;;;-5.74;62.94
58467;BME280;44255;49.244;7.726;2023-04-06T06:53:58;98577.78;;;-5.63;63.13
58467;BME280;44255;49.244;7.726;2023-04-06T06:56:23;98574.28;;;-5.51;62.76
58467;BME280;44255;49.244;7.726;2023-04-06T06:58:48;98581.31;;;-5.65;63.55
58467;BME280;44255;49.244;7.726;2023-04-06T07:01:13;98577.78;;;-5.72;62.46
58467;BME280;44255;49.244;7.726;2023-04-06T07:03:39;98576.00;;;-5.37;60.95
58467;BME280;44255;49.244;7.726;2023-04-06T07:06:04;98575.16;;;-5.33;60.63
58467;BME280;44255;49.244;7.726;2023-04-06T07:08:30;98568.09;;;-5.19;61.10
58467;BME280;44255;49.244;7.726;2023-04-06T07:10:55;98565.47;;;-5.17;61.08
58467;BME280;44255;49.244;7.726;2023-04-06T07:13:24;98560.13;;;-4.86;60.47
58467;BME280;44255;49.244;7.726;2023-04-06T07:15:50;98558.28;;;-4.65;60.94
58467;BME280;44255;49.244;7.726;2023-04-06T07:18:16;98560.84;;;-4.50;60.75
58467;BME280;44255;49.244;7.726;2023-04-06T07:20:42;98558.03;;;-4.19;60.40
58467;BME280;44255;49.244;7.726;2023-04-06T07:23:07;98556.94;;;-3.90;59.39
58467;BME280;44255;49.244;7.726;2023-04-06T07:25:32;98554.22;;;-3.77;58.54
58467;BME280;44255;49.244;7.726;2023-04-06T07:27:58;98554.94;;;-3.56;58.56
58467;BME280;44255;49.244;7.726;2023-04-06T07:30:23;98548.59;;;-3.34;58.06
58467;BME280;44255;49.244;7.726;2023-04-06T07:32:51;98546.94;;;-3.49;57.03
58467;BME280;44255;49.244;7.726;2023-04-06T07:35:16;98549.41;;;-3.27;56.84
58467;BME280;44255;49.244;7.726;2023-04-06T07:37:41;98548.34;;;-3.10;57.20
58467;BME280;44255;49.244;7.726;2023-04-06T07:40:07;98552.63;;;-3.00;57.11
58467;BME280;44255;49.244;7.726;2023-04-06T07:42:33;98553.56;;;-3.06;57.12
58467;BME280;44255;49.244;7.726;2023-04-06T07:44:58;98553.28;;;-2.81;56.14
58467;BME280;44255;49.244;7.726;2023-04-06T07:47:24;98549.84;;;-2.86;57.12
58467;BME280;44255;49.244;7.726;2023-04-06T07:49:49;98554.66;;;-2.49;56.75
58467;BME280;44255;49.244;7.726;2023-04-06T07:52:15;98551.81;;;-2.36;56.29
58467;BME280;44255;49.244;7.726;2023-04-06T07:54:40;98552.66;;;-2.31;55.62
58467;BME280;44255;49.244;7.726;2023-04-06T07:57:06;98554.25;;;-2.21;54.70
58467;BME280;44255;49.244;7.726;2023-04-06T07:59:31;98548.69;;;-2.02;53.34
58467;BME280;44255;49.244;7.726;2023-04-06T08:01:57;98546.75;;;-1.88;53.38
58467;BME280;44255;49.244;7.726;2023-04-06T08:04:22;98548.41;;;-1.80;51.96
58467;BME280;44255;49.244;7.726;2023-04-06T08:06:47;98545.69;;;-1.76;52.01
58467;BME280;44255;49.244;7.726;2023-04-06T08:09:12;98550.63;;;-1.54;53.65
58467;BME280;44255;49.244;7.726;2023-04-06T08:11:38;98534.38;;;-1.34;51.96
58467;BME280;44255;49.244;7.726;2023-04-06T08:14:03;98541.81;;;-1.06;49.30
58467;BME280;44255;49.244;7.726;2023-04-06T08:16:28;98536.16;;;-0.85;47.98
58467;BME280;44255;49.244;7.726;2023-04-06T08:18:53;98545.59;;;-0.74;46.40
58467;BME280;44255;49.244;7.726;2023-04-06T08:21:19;98530.38;;;-0.62;44.84
58467;BME280;44255;49.244;7.726;2023-04-06T08:23:44;98537.63;;;-0.29;45.59
58467;BME280;44255;49.244;7.726;2023-04-06T08:26:11;98533.63;;;-0.08;47.35
58467;BME280;44255;49.244;7.726;2023-04-06T08:28:36;98534.94;;;0.10;46.55
58467;BME280;44255;49.244;7.726;2023-04-06T08:31:05;98532.81;;;0.26;46.19
58467;BME280;44255;49.244;7.726;2023-04-06T08:33:31;98527.41;;;0.31;43.65
58467;BME280;44255;49.244;7.726;2023-04-06T08:35:56;98530.63;;;0.42;42.76
58467;BME280;44255;49.244;7.726;2023-04-06T08:38:22;98526.59;;;0.63;44.14
58467;BME280;44255;49.244;7.726;2023-04-06T08:40:47;98529.97;;;0.70;42.33
58467;BME280;44255;49.244;7.726;2023-04-06T08:43:17;98530.38;;;0.53;41.77
58467;BME280;44255;49.244;7.726;2023-04-06T08:45:44;98523.69;;;0.73;41.76
58467;BME280;44255;49.244;7.726;2023-04-06T08:48:11;98534.44;;;0.68;41.07
58467;BME280;44255;49.244;7.726;2023-04-06T08:50:38;98526.41;;;0.71;40.69
58467;BME280;44255;49.244;7.726;2023-04-06T08:53:05;98524.03;;;0.93;41.07
58467;BME280;44255;49.244;7.726;2023-04-06T08:55:31;98526.06;;;1.17;41.18
58467;BME280;44255;49.244;7.726;2023-04-06T08:57:58;98532.44;;;1.09;40.39
58467;BME280;44255;49.244;7.726;2023-04-06T09:00:25;98530.50;;;1.15;41.64
58467;BME280;44255;49.244;7.726;2023-04-06T09:02:53;98530.13;;;1.29;40.83
58467;BME280;44255;49.244;7.726;2023-04-06T09:05:19;98522.53;;;1.46;41.13
58467;BME280;44255;49.244;7.726;2023-04-06T09:07:45;98521.28;;;1.58;41.16
58467;BME280;44255;49.244;7.726;2023-04-06T09:10:10;98517.03;;;1.52;39.34
58467;BME280;44255;49.244;7.726;2023-04-06T09:12:35;98517.13;;;1.49;38.94
58467;BME280;44255;49.244;7.726;2023-04-06T09:15:01;98516.25;;;1.49;39.82
58467;BME280;44255;49.244;7.726;2023-04-06T09:17:31;98525.31;;;1.72;40.13
58467;BME280;44255;49.244;7.726;2023-04-06T09:19:58;98522.66;;;1.72;39.30
58467;BME280;44255;49.244;7.726;2023-04-06T09:22:23;98516.72;;;1.92;38.70
58467;BME280;44255;49.244;7.726;2023-04-06T09:24:53;98516.44;;;2.01;38.89
58467;BME280;44255;49.244;7.726;2023-04-06T09:27:33;98527.44;;;1.89;36.97
58467;BME280;44255;49.244;7.726;2023-04-06T09:30:07;98520.88;;;1.72;37.25
58467;BME280;44255;49.244;7.726;2023-04-06T09:32:32;98525.09;;;1.79;37.19
58467;BME280;44255;49.244;7.726;2023-04-06T09:35:08;98523.97;;;1.87;36.67
58467;BME280;44255;49.244;7.726;2023-04-06T09:37:34;98505.50;;;2.10;36.73
58467;BME280;44255;49.244;7.726;2023-04-06T09:40:04;98516.47;;;2.28;37.14
58467;BME280;44255;49.244;7.726;2023-04-06T09:42:30;98510.94;;;2.34;36.40
58467;BME280;44255;49.244;7.726;2023-04-06T09:44:55;98511.94;;;2.59;36.38
58467;BME280;44255;49.244;7.726;2023-04-06T09:47:22;98513.38;;;2.42;35.81
58467;BME280;44255;49.244;7.726;2023-04-06T09:49:50;98517.75;;;2.70;35.47
58467;BME280;44255;49.244;7.726;2023-04-06T09:52:16;98508.56;;;2.79;35.10
58467;BME280;44255;49.244;7.726;2023-04-06T09:54:43;98506.59;;;2.84;34.90
58467;BME280;44255;49.244;7.726;2023-04-06T09:57:17;98497.94;;;2.79;34.98
58467;BME280;44255;49.244;7.726;2023-04-06T10:00:00;98501.88;;;2.92;35.18
58467;BME280;44255;49.244;7.726;2023-04-06T10:02:39;98493.22;;;2.86;36.07
58467;BME280;44255;49.244;7.726;2023-04-06T10:05:12;98491.16;;;2.94;35.79
58467;BME280;44255;49.244;7.726;2023-04-06T10:07:40;98490.78;;;3.29;36.14
58467;BME280;44255;49.244;7.726;2023-04-06T10:10:06;98490.50;;;3.36;36.00
58467;BME280;44255;49.244;7.726;2023-04-06T10:12:33;98494.13;;;3.58;36.32
58467;BME280;44255;49.244;7.726;2023-04-06T10:14:58;98496.03;;;3.54;35.43
58467;BME280;44255;49.244;7.726;2023-04-06T10:17:24;98498.75;;;3.05;35.02
58467;BME280;44255;49.244;7.726;2023-04-06T10:19:53;98493.38;;;3.54;35.59
58467;BME280;44255;49.244;7.726;2023-04-06T10:22:32;98482.97;;;3.48;34.82
58467;BME280;44255;49.244;7.726;2023-04-06T10:25:00;98485.78;;;3.67;35.31
58467;BME280;44255;49.244;7.726;2023-04-06T10:27:29;98491.34;;;3.38;34.12
58467;BME280;44255;49.244;7.726;2023-04-06T10:30:01;98488.13;;;3.52;34.70
58467;BME280;44255;49.244;7.726;2023-04-06T10:35:11;98495.91;;;3.35;34.45
58467;BME280;44255;49.244;7.726;2023-04-06T10:38:02;98505.22;;;3.47;34.12
58467;BME280;44255;49.244;7.726;2023-04-06T10:40:27;98491.88;;;3.47;33.82
58467;BME280;44255;49.244;7.726;2023-04-06T10:42:54;98500.59;;;3.28;33.21
58467;BME280;44255;49.244;7.726;2023-04-06T10:45:25;98492.53;;;3.53;33.84
58467;BME280;44255;49.244;7.726;2023-04-06T10:47:54;98497.03;;;3.51;34.34
58467;BME280;44255;49.244;7.726;2023-04-06T10:50:20;98496.06;;;3.30;33.87
58467;BME280;44255;49.244;7.726;2023-04-06T10:52:46;98489.13;;;3.72;35.10
58467;BME280;44255;49.244;7.726;2023-04-06T10:55:13;98480.09;;;3.76;34.20
58467;BME280;44255;49.244;7.726;2023-04-06T10:57:38;98478.94;;;3.84;34.29
58467;BME280;44255;49.244;7.726;2023-04-06T11:00:08;98488.88;;;4.02;33.85
58467;BME280;44255;49.244;7.726;2023-04-06T11:02:36;98488.03;;;4.00;34.12
58467;BME280;44255;49.244;7.726;2023-04-06T11:05:03;98477.16;;;4.06;33.92
58467;BME280;44255;49.244;7.726;2023-04-06T11:07:28;98483.81;;;3.94;34.42
58467;BME280;44255;49.244;7.726;2023-04-06T11:09:55;98471.59;;;3.89;33.58
58467;BME280;44255;49.244;7.726;2023-04-06T11:12:26;98482.91;;;3.72;34.35
58467;BME280;44255;49.244;7.726;2023-04-06T11:14:59;98477.13;;;3.84;34.17
58467;BME280;44255;49.244;7.726;2023-04-06T11:17:33;98468.00;;;3.90;33.78
58467;BME280;44255;49.244;7.726;2023-04-06T11:19:59;98458.31;;;4.32;34.23
58467;BME280;44255;49.244;7.726;2023-04-06T11:22:25;98468.88;;;4.13;34.39
58467;BME280;44255;49.244;7.726;2023-04-06T11:24:51;98470.38;;;4.20;34.52
58467;BME280;44255;49.244;7.726;2023-04-06T11:27:18;98456.59;;;4.31;34.04
58467;BME280;44255;49.244;7.726;2023-04-06T11:29:44;98457.72;;;4.66;34.93
58467;BME280;44255;49.244;7.726;2023-04-06T11:32:20;98454.13;;;4.88;33.96
58467;BME280;44255;49.244;7.726;2023-04-06T11:34:47;98449.66;;;4.68;32.50
58467;BME280;44255;49.244;7.726;2023-04-06T11:37:12;98449.84;;;4.43;32.74
58467;BME280;44255;49.244;7.726;2023-04-06T11:39:55;98453.91;;;4.72;32.99
58467;BME280;44255;49.244;7.726;2023-04-06T11:42:27;98443.56;;;4.23;33.52
58467;BME280;44255;49.244;7.726;2023-04-06T11:44:59;98447.66;;;4.52;33.40
58467;BME280;44255;49.244;7.726;2023-04-06T11:47:32;98453.66;;;4.78;33.57
58467;BME280;44255;49.244;7.726;2023-04-06T11:50:11;98448.31;;;4.58;33.16
58467;BME280;44255;49.244;7.726;2023-04-06T11:52:41;98444.97;;;4.73;32.89
58467;BME280;44255;49.244;7.726;2023-04-06T11:55:15;98442.06;;;4.59;32.29
58467;BME280;44255;49.244;7.726;2023-04-06T11:57:41;98436.25;;;4.70;32.56
58467;BME280;44255;49.244;7.726;2023-04-06T12:00:07;98424.38;;;5.15;32.46
58467;BME280;44255;49.244;7.726;2023-04-06T12:02:34;98426.34;;;5.31;32.91
58467;BME280;44255;49.244;7.726;2023-04-06T12:05:00;98418.72;;;4.83;33.16
58467;BME280;44255;49.244;7.726;2023-04-06T12:07:25;98425.34;;;4.74;34.05
58467;BME280;44255;49.244;7.726;2023-04-06T12:09:50;98439.56;;;4.75;33.21
58467;BME280;44255;49.244;7.726;2023-04-06T12:12:15;98422.13;;;5.46;32.49
58467;BME280;44255;49.244;7.726;2023-04-06T12:14:41;98429.31;;;5.25;32.67
58467;BME280;44255;49.244;7.726;2023-04-06T12:17:06;98419.06;;;5.73;32.85
58467;BME280;44255;49.244;7.726;2023-04-06T12:19:31;98415.59;;;5.71;31.80
58467;BME280;44255;49.244;7.726;2023-04-06T12:21:57;98412.88;;;5.53;31.90
58467;BME280;44255;49.244;7.726;2023-04-06T12:24:22;98406.28;;;5.97;32.25
58467;BME280;44255;49.244;7.726;2023-04-06T12:26:48;98415.09;;;5.99;32.43
58467;BME280;44255;49.244;7.726;2023-04-06T12:29:13;98410.41;;;5.68;32.20
58467;BME280;44255;49.244;7.726;2023-04-06T12:31:39;98417.97;;;5.00;33.56
58467;BME280;44255;49.244;7.726;2023-04-06T12:34:06;98420.63;;;5.00;33.86
58467;BME280;44255;49.244;7.726;2023-04-06T12:36:32;98415.56;;;4.54;33.95
58467;BME280;44255;49.244;7.726;2023-04-06T12:38:58;98411.00;;;4.77;34.75
58467;BME280;44255;49.244;7.726;2023-04-06T12:41:25;98413.25;;;4.65;35.00
58467;BME280;44255;49.244;7.726;2023-04-06T12:43:50;98402.59;;;5.05;34.88
58467;BME280;44255;49.244;7.726;2023-04-06T12:46:17;98407.63;;;4.92;34.54
58467;BME280;44255;49.244;7.726;2023-04-06T12:48:42;98407.88;;;4.67;34.71
58467;BME280;44255;49.244;7.726;2023-04-06T12:51:07;98412.06;;;4.73;33.87
58467;BME280;44255;49.244;7.726;2023-04-06T12:53:33;98410.81;;;4.40;34.52
58467;BME280;44255;49.244;7.726;2023-04-06T12:56:00;98410.03;;;4.59;34.96
58467;BME280;44255;49.244;7.726;2023-04-06T12:58:25;98403.94;;;4.55;34.61
58467;BME280;44255;49.244;7.726;2023-04-06T13:00:55;98408.88;;;4.64;35.10
58467;BME280;44255;49.244;7.726;2023-04-06T13:03:21;98401.53;;;4.70;34.65
58467;BME280;44255;49.244;7.726;2023-04-06T13:05:47;98402.22;;;4.54;34.86
58467;BME280;44255;49.244;7.726;2023-04-06T13:08:13;98413.81;;;4.32;35.33
58467;BME280;44255;49.244;7.726;2023-04-06T13:10:49;98400.59;;;4.08;34.92
58467;BME280;44255;49.244;7.726;2023-04-06T13:13:15;98412.41;;;4.23;35.50
58467;BME280;44255;49.244;7.726;2023-04-06T13:15:41;98406.75;;;4.31;35.43
58467;BME280;44255;49.244;7.726;2023-04-06T13:18:07;98405.63;;;4.37;35.69
58467;BME280;44255;49.244;7.726;2023-04-06T13:20:32;98398.69;;;4.93;35.12
58467;BME280;44255;49.244;7.726;2023-04-06T13:22:57;98405.25;;;4.86;35.35
58467;BME280;44255;49.244;7.726;2023-04-06T13:25:23;98401.44;;;4.52;35.70
58467;BME280;44255;49.244;7.726;2023-04-06T13:27:48;98417.22;;;4.36;36.37
58467;BME280;44255;49.244;7.726;2023-04-06T13:30:14;98406.34;;;4.41;36.19
58467;BME280;44255;49.244;7.726;2023-04-06T13:32:39;98405.00;;;4.72;36.07
58467;BME280;44255;49.244;7.726;2023-04-06T13:35:05;98395.16;;;5.31;36.29
58467;BME280;44255;49.244;7.726;2023-04-06T13:37:32;98393.06;;;5.94;34.86
58467;BME280;44255;49.244;7.726;2023-04-06T13:39:57;98401.66;;;5.26;34.81
58467;BME280;44255;49.244;7.726;2023-04-06T13:42:22;98400.75;;;4.68;35.46
58467;BME280;44255;49.244;7.726;2023-04-06T13:44:47;98399.13;;;4.63;35.92
58467;BME280;44255;49.244;7.726;2023-04-06T13:47:15;98397.84;;;4.93;34.85
58467;BME280;44255;49.244;7.726;2023-04-06T13:49:41;98382.78;;;4.71;34.95
58467;BME280;44255;49.244;7.726;2023-04-06T13:52:06;98383.91;;;5.25;35.36
58467;BME280;44255;49.244;7.726;2023-04-06T13:54:31;98397.69;;;4.96;35.97
58467;BME280;44255;49.244;7.726;2023-04-06T13:56:57;98391.22;;;4.62;35.69
58467;BME280;44255;49.244;7.726;2023-04-06T13:59:22;98391.41;;;4.57;35.71
58467;BME280;44255;49.244;7.726;2023-04-06T14:01:48;98383.19;;;5.02;36.39
58467;BME280;44255;49.244;7.726;2023-04-06T14:04:13;98393.59;;;4.68;36.12
58467;BME280;44255;49.244;7.726;2023-04-06T14:06:38;98384.69;;;4.88;36.18
58467;BME280;44255;49.244;7.726;2023-04-06T14:09:03;98388.22;;;5.08;36.82
58467;BME280;44255;49.244;7.726;2023-04-06T14:11:29;98390.41;;;4.60;37.06
58467;BME280;44255;49.244;7.726;2023-04-06T14:13:54;98396.47;;;4.63;37.66
58467;BME280;44255;49.244;7.726;2023-04-06T14:16:20;98393.94;;;4.40;37.58
58467;BME280;44255;49.244;7.726;2023-04-06T14:18:46;98393.78;;;4.63;37.10
58467;BME280;44255;49.244;7.726;2023-04-06T14:21:11;98383.34;;;4.78;37.76
58467;BME280;44255;49.244;7.726;2023-04-06T14:23:37;98379.19;;;4.91;36.77
58467;BME280;44255;49.244;7.726;2023-04-06T14:26:04;98392.16;;;4.80;37.63
58467;BME280;44255;49.244;7.726;2023-04-06T14:28:31;98379.75;;;4.79;37.71
58467;BME280;44255;49.244;7.726;2023-04-06T14:30:58;98382.50;;;4.77;37.65
58467;BME280;44255;49.244;7.726;2023-04-06T14:33:25;98381.94;;;4.08;38.55
58467;BME280;44255;49.244;7.726;2023-04-06T14:35:50;98390.06;;;4.26;38.99
58467;BME280;44255;49.244;7.726;2023-04-06T14:38:15;98394.63;;;4.24;38.51
58467;BME280;44255;49.244;7.726;2023-04-06T14:40:40;98386.09;;;3.93;39.08
58467;BME280;44255;49.244;7.726;2023-04-06T14:43:06;98397.88;;;3.88;39.43
58467;BME280;44255;49.244;7.726;2023-04-06T14:45:33;98385.16;;;4.17;39.75
58467;BME280;44255;49.244;7.726;2023-04-06T14:47:58;98390.88;;;4.07;39.89
58467;BME280;44255;49.244;7.726;2023-04-06T14:50:24;98393.19;;;3.72;40.75
58467;BME280;44255;49.244;7.726;2023-04-06T14:52:49;98392.69;;;3.62;41.04
58467;BME280;44255;49.244;7.726;2023-04-06T14:55:14;98389.03;;;3.65;41.23
58467;BME280;44255;49.244;7.726;2023-04-06T14:57:40;98396.03;;;3.67;40.95
58467;BME280;44255;49.244;7.726;2023-04-06T15:00:06;98395.66;;;3.32;41.55
58467;BME280;44255;49.244;7.726;2023-04-06T15:02:33;98396.41;;;3.36;41.41
58467;BME280;44255;49.244;7.726;2023-04-06T15:04:58;98398.88;;;3.63;41.76
58467;BME280;44255;49.244;7.726;2023-04-06T15:07:23;98393.84;;;3.55;42.16
58467;BME280;44255;49.244;7.726;2023-04-06T15:09:49;98393.19;;;3.72;42.16
58467;BME280;44255;49.244;7.726;2023-04-06T15:12:14;98395.59;;;3.78;41.58
58467;BME280;44255;49.244;7.726;2023-04-06T15:14:39;98393.41;;;3.88;41.58
58467;BME280;44255;49.244;7.726;2023-04-06T15:17:05;98394.88;;;3.75;41.77
58467;BME280;44255;49.244;7.726;2023-04-06T15:19:30;98396.78;;;3.49;42.83
58467;BME280;44255;49.244;7.726;2023-04-06T15:21:55;98416.09;;;3.08;44.56
58467;BME280;44255;49.244;7.726;2023-04-06T15:24:21;98410.47;;;3.16;45.25
58467;BME280;44255;49.244;7.726;2023-04-06T15:26:46;98407.34;;;3.28;44.85
58467;BME280;44255;49.244;7.726;2023-04-06T15:29:11;98421.56;;;3.05;45.18
58467;BME280;44255;49.244;7.726;2023-04-06T15:31:37;98423.72;;;2.70;46.17
58467;BME280;44255;49.244;7.726;2023-04-06T15:34:04;98410.38;;;2.95;46.58
58467;BME280;44255;49.244;7.726;2023-04-06T15:36:30;98408.47;;;2.99;46.52
58467;BME280;44255;49.244;7.726;2023-04-06T15:38:58;98414.94;;;2.91;46.30
58467;BME280;44255;49.244;7.726;2023-04-06T15:41:24;98412.81;;;3.01;47.11
58467;BME280;44255;49.244;7.726;2023-04-06T15:43:51;98420.31;;;2.66;48.40
58467;BME280;44255;49.244;7.726;2023-04-06T15:46:16;98421.50;;;2.57;48.78
58467;BME280;44255;49.244;7.726;2023-04-06T15:48:42;98419.88;;;2.53;49.19
58467;BME280;44255;49.244;7.726;2023-04-06T15:51:07;98434.38;;;2.44;49.94
58467;BME280;44255;49.244;7.726;2023-04-06T15:53:32;98431.41;;;2.79;48.93
58467;BME280;44255;49.244;7.726;2023-04-06T15:56:02;98428.94;;;2.73;49.06
58467;BME280;44255;49.244;7.726;2023-04-06T15:58:28;98441.66;;;2.64;50.24
58467;BME280;44255;49.244;7.726;2023-04-06T16:00:53;98437.03;;;2.17;51.83
58467;BME280;44255;49.244;7.726;2023-04-06T16:03:19;98433.81;;;1.80;53.08
58467;BME280;44255;49.244;7.726;2023-04-06T16:05:45;98440.72;;;1.86;52.52
58467;BME280;44255;49.244;7.726;2023-04-06T16:08:11;98440.47;;;2.21;53.98
58467;BME280;44255;49.244;7.726;2023-04-06T16:10:38;98436.47;;;2.34;53.21
58467;BME280;44255;49.244;7.726;2023-04-06T16:13:03;98441.28;;;2.50;53.57
58467;BME280;44255;49.244;7.726;2023-04-06T16:15:28;98444.66;;;2.28;54.01
58467;BME280;44255;49.244;7.726;2023-04-06T16:17:54;98442.94;;;2.52;54.12
58467;BME280;44255;49.244;7.726;2023-04-06T16:20:19;98435.94;;;2.75;55.46
58467;BME280;44255;49.244;7.726;2023-04-06T16:22:44;98443.38;;;2.40;55.83
58467;BME280;44255;49.244;7.726;2023-04-06T16:25:10;98443.31;;;2.42;57.22
58467;BME280;44255;49.244;7.726;2023-04-06T16:27:36;98441.13;;;2.01;58.22
58467;BME280;44255;49.244;7.726;2023-04-06T16:30:01;98441.34;;;2.21;58.63
58467;BME280;44255;49.244;7.726;2023-04-06T16:32:27;98440.69;;;2.15;59.90
58467;BME280;44255;49.244;7.726;2023-04-06T16:34:52;98438.75;;;2.18;60.82